Time;durP1;ratioP1;P1;durP2;ratioP2;P2;SDS_P1;SDS_P2;PMS_P1;PMS_P2;Temp;Humidity;BMP_temperature;BMP_pressure;BME280_temperature;BME280_humidity;BME280_pressure;Samples;Min_cycle;Max_cycle;Signal;HPM_P1;HPM_P2
2022/10/01 00:01:10;;;;;;;;;;;16.40;99.90;;;;;;4938951;29;20345;-72
2022/10/01 00:03:37;;;;;;;;;;;16.40;99.90;;;;;;4939003;29;19911;-67
2022/10/01 00:06:04;;;;;;;;;;;16.40;99.90;;;;;;4938332;29;19922;-72
2022/10/01 00:08:31;;;;;;;;;;;16.50;99.90;;;;;;4938730;29;19918;-74
2022/10/01 00:11:01;;;;;;;;;;;16.60;99.90;;;;;;4939021;29;19911;-71
2022/10/01 00:13:29;;;;;;;;;;;16.70;99.90;;;;;;4939187;29;19918;-71
2022/10/01 00:15:56;;;;;;;;;;;16.70;99.90;;;;;;4939637;29;19978;-66
2022/10/01 00:18:22;;;;;;;;;;;16.70;99.90;;;;;;4939229;29;19911;-66
2022/10/01 00:20:49;;;;;;;;;;;16.70;99.90;;;;;;4928866;29;19923;-68
2022/10/01 00:23:16;;;;;;;;;;;16.70;99.90;;;;;;4918637;29;20331;-71
2022/10/01 00:25:42;;;;;;;;;;;16.80;99.90;;;;;;4919960;29;20263;-71
2022/10/01 00:28:10;;;;;;;;;;;17.10;99.90;;;;;;4919934;29;19950;-72
2022/10/01 00:30:37;;;;;;;;;;;17.20;99.90;;;;;;4933229;29;19915;-71
2022/10/01 00:33:04;;;;;;;;;;;17.20;99.90;;;;;;4938213;29;19918;-67
2022/10/01 00:35:31;;;;;;;;;;;17.20;99.90;;;;;;4938630;29;19918;-66
2022/10/01 00:37:58;;;;;;;;;;;17.40;99.90;;;;;;4937579;29;19911;-67
2022/10/01 00:40:24;;;;;;;;;;;17.50;99.90;;;;;;4938381;29;19914;-66
2022/10/01 00:42:51;;;;;;;;;;;17.50;99.90;;;;;;4937374;29;19914;-69
2022/10/01 00:45:18;;;;;;;;;;;17.30;99.90;;;;;;4937878;29;19919;-66
2022/10/01 00:47:51;;;;;;;;;;;17.20;99.90;;;;;;4938584;29;19911;-67
2022/10/01 00:50:18;;;;;;;;;;;16.90;99.90;;;;;;4935213;29;19922;-70
2022/10/01 00:52:46;;;;;;;;;;;16.80;99.90;;;;;;4936394;29;19926;-72
2022/10/01 00:55:17;;;;;;;;;;;16.50;99.90;;;;;;4936146;29;20282;-67
2022/10/01 00:57:44;;;;;;;;;;;16.20;99.90;;;;;;4935446;29;19922;-67
2022/10/01 01:00:12;;;;;;;;;;;16.00;99.90;;;;;;4935245;29;19918;-72
2022/10/01 01:02:39;;;;;;;;;;;15.90;99.90;;;;;;4935800;29;19918;-70
2022/10/01 01:05:07;;;;;;;;;;;15.90;99.90;;;;;;4935880;29;20302;-74
2022/10/01 01:07:35;;;;;;;;;;;15.90;99.90;;;;;;4936231;29;19911;-67
2022/10/01 01:10:02;;;;;;;;;;;16.00;99.90;;;;;;4935704;29;20346;-66
2022/10/01 01:12:55;;;;;;;;;;;16.00;99.90;;;;;;4935068;29;20014;-65
2022/10/01 01:15:42;;;;;;;;;;;16.00;99.90;;;;;;4932500;29;20349;-65
2022/10/01 01:18:15;;;;;;;;;;;15.90;99.90;;;;;;4935745;29;19911;-67
2022/10/01 01:20:45;;;;;;;;;;;15.80;99.90;;;;;;4935717;29;19918;-67
2022/10/01 01:23:14;;;;;;;;;;;15.70;99.90;;;;;;4935658;29;19911;-67
2022/10/01 01:25:47;;;;;;;;;;;15.60;99.90;;;;;;4935155;29;19989;-67
2022/10/01 01:28:17;;;;;;;;;;;15.60;99.90;;;;;;4934209;29;19955;-67
2022/10/01 01:30:46;;;;;;;;;;;15.70;99.90;;;;;;4935510;29;19918;-68
2022/10/01 01:33:16;;;;;;;;;;;15.70;99.90;;;;;;4935526;29;20461;-67
2022/10/01 01:35:45;;;;;;;;;;;15.70;99.90;;;;;;4935620;29;19915;-67
2022/10/01 01:38:18;;;;;;;;;;;15.70;99.90;;;;;;4935788;29;19911;-67
2022/10/01 01:40:45;;;;;;;;;;;15.70;99.90;;;;;;4930097;29;19972;-72
2022/10/01 01:43:19;;;;;;;;;;;15.40;99.90;;;;;;4915843;29;19918;-71
2022/10/01 01:45:47;;;;;;;;;;;15.10;99.90;;;;;;4916371;29;19966;-67
2022/10/01 01:48:14;;;;;;;;;;;14.60;99.90;;;;;;4916179;29;19915;-68
2022/10/01 01:50:47;;;;;;;;;;;14.40;99.90;;;;;;4916139;29;19922;-69
2022/10/01 01:53:14;;;;;;;;;;;14.40;99.90;;;;;;4916309;29;19995;-72
2022/10/01 01:55:42;;;;;;;;;;;14.40;99.90;;;;;;4915990;29;19911;-73
2022/10/01 01:58:08;;;;;;;;;;;14.40;99.90;;;;;;4916276;29;19918;-70
2022/10/01 02:00:35;;;;;;;;;;;14.50;99.90;;;;;;4915575;29;19916;-69
2022/10/01 02:03:03;;;;;;;;;;;14.60;99.90;;;;;;4915805;29;20009;-67
2022/10/01 02:05:36;;;;;;;;;;;14.70;99.90;;;;;;4915936;29;19919;-73
2022/10/01 02:08:03;;;;;;;;;;;15.00;99.90;;;;;;4915674;29;19979;-70
2022/10/01 02:10:35;;;;;;;;;;;15.20;99.90;;;;;;4915707;29;19911;-71
2022/10/01 02:13:09;;;;;;;;;;;15.30;99.90;;;;;;4915694;29;19922;-68
2022/10/01 02:15:36;;;;;;;;;;;15.50;99.90;;;;;;4916162;29;19919;-70
2022/10/01 02:18:11;;;;;;;;;;;15.80;99.90;;;;;;4915777;29;19960;-69
2022/10/01 02:20:49;;;;;;;;;;;16.10;99.90;;;;;;4916647;29;20438;-72
2022/10/01 02:23:21;;;;;;;;;;;16.30;99.90;;;;;;4917394;29;19916;-73
2022/10/01 02:25:50;;;;;;;;;;;16.50;99.90;;;;;;4919233;29;19982;-71
2022/10/01 02:28:19;;;;;;;;;;;16.60;99.90;;;;;;4918005;29;19918;-71
2022/10/01 02:30:46;;;;;;;;;;;16.50;99.90;;;;;;4917791;29;19915;-69
2022/10/01 02:33:14;;;;;;;;;;;16.50;99.90;;;;;;4916398;29;19911;-70
2022/10/01 02:35:44;;;;;;;;;;;16.40;99.90;;;;;;4921880;29;20381;-73
2022/10/01 02:38:11;;;;;;;;;;;16.50;99.90;;;;;;4935142;29;20311;-72
2022/10/01 02:40:40;;;;;;;;;;;16.70;99.90;;;;;;4936597;29;20005;-68
2022/10/01 02:43:11;;;;;;;;;;;16.80;99.90;;;;;;4936507;29;20263;-72
2022/10/01 02:45:40;;;;;;;;;;;16.80;99.90;;;;;;4934968;29;19923;-68
2022/10/01 02:48:09;;;;;;;;;;;16.70;99.90;;;;;;4916730;29;19911;-67
2022/10/01 02:50:51;;;;;;;;;;;16.50;99.90;;;;;;4917336;29;19915;-70
2022/10/01 02:53:24;;;;;;;;;;;16.50;99.90;;;;;;4917644;29;19911;-70
2022/10/01 02:55:52;;;;;;;;;;;16.40;99.90;;;;;;4917446;29;19919;-68
2022/10/01 02:58:19;;;;;;;;;;;16.50;99.90;;;;;;4917333;29;19911;-71
2022/10/01 03:00:46;;;;;;;;;;;16.60;99.90;;;;;;4915221;29;20310;-68
2022/10/01 03:03:12;;;;;;;;;;;16.80;99.90;;;;;;4916732;29;19922;-69
2022/10/01 03:05:39;;;;;;;;;;;16.70;99.90;;;;;;4917391;29;19919;-70
2022/10/01 03:08:06;;;;;;;;;;;16.70;99.90;;;;;;4917182;29;19998;-70
2022/10/01 03:10:33;;;;;;;;;;;16.80;99.90;;;;;;4917276;29;19983;-70
2022/10/01 03:13:00;;;;;;;;;;;16.90;99.90;;;;;;4917264;29;20389;-69
2022/10/01 03:15:27;;;;;;;;;;;17.10;99.90;;;;;;4916815;29;20248;-70
2022/10/01 03:17:54;;;;;;;;;;;17.30;99.90;;;;;;4916975;29;19918;-68
2022/10/01 03:20:21;;;;;;;;;;;17.30;99.90;;;;;;4916872;29;19911;-69
2022/10/01 03:22:48;;;;;;;;;;;16.70;99.90;;;;;;4916939;29;19912;-69
2022/10/01 03:25:15;;;;;;;;;;;16.20;99.90;;;;;;4916797;29;20370;-70
2022/10/01 03:27:42;;;;;;;;;;;15.60;99.90;;;;;;4916993;29;19911;-70
2022/10/01 03:30:09;;;;;;;;;;;14.90;99.90;;;;;;4919738;29;19919;-71
2022/10/01 03:32:36;;;;;;;;;;;14.60;99.90;;;;;;4935424;29;19911;-67
2022/10/01 03:35:03;;;;;;;;;;;14.50;99.90;;;;;;4935443;29;19911;-70
2022/10/01 03:37:29;;;;;;;;;;;14.50;99.90;;;;;;4935842;29;19950;-67
2022/10/01 03:39:56;;;;;;;;;;;14.50;99.90;;;;;;4935309;29;19922;-69
2022/10/01 03:42:23;;;;;;;;;;;14.50;99.90;;;;;;4934561;29;19973;-68
2022/10/01 03:44:49;;;;;;;;;;;14.50;99.90;;;;;;4935730;29;20137;-72
2022/10/01 03:47:16;;;;;;;;;;;14.60;99.90;;;;;;4935457;29;20350;-67
2022/10/01 03:49:43;;;;;;;;;;;14.80;99.90;;;;;;4935775;29;20327;-70
2022/10/01 03:52:09;;;;;;;;;;;14.90;99.90;;;;;;4935697;29;19911;-68
2022/10/01 03:54:38;;;;;;;;;;;15.30;99.90;;;;;;4935720;29;20001;-66
2022/10/01 03:57:05;;;;;;;;;;;15.10;99.90;;;;;;4934472;29;19922;-66
2022/10/01 03:59:32;;;;;;;;;;;15.00;99.90;;;;;;4933204;29;19911;-67
2022/10/01 04:01:58;;;;;;;;;;;14.90;99.90;;;;;;4934943;29;19923;-70
2022/10/01 04:04:27;;;;;;;;;;;14.80;99.90;;;;;;4935562;29;19911;-70
2022/10/01 04:06:54;;;;;;;;;;;14.80;99.90;;;;;;4935649;29;19911;-70
2022/10/01 04:09:21;;;;;;;;;;;15.10;99.90;;;;;;4935457;29;19910;-71
2022/10/01 04:11:47;;;;;;;;;;;15.30;99.90;;;;;;4931882;29;19916;-69
2022/10/01 04:14:14;;;;;;;;;;;15.30;99.90;;;;;;4918859;29;19917;-69
2022/10/01 04:16:41;;;;;;;;;;;15.50;99.90;;;;;;4920246;29;19911;-74
2022/10/01 04:19:07;;;;;;;;;;;15.70;99.90;;;;;;4919900;29;19911;-74
2022/10/01 04:21:35;;;;;;;;;;;15.80;99.90;;;;;;4920120;29;19982;-72
2022/10/01 04:24:03;;;;;;;;;;;16.00;99.90;;;;;;4920056;29;19911;-73
2022/10/01 04:26:30;;;;;;;;;;;16.10;99.90;;;;;;4920185;29;19930;-73
2022/10/01 04:28:57;;;;;;;;;;;16.30;99.90;;;;;;4918587;29;19957;-74
2022/10/01 04:31:23;;;;;;;;;;;16.40;99.90;;;;;;4920424;29;20378;-74
2022/10/01 04:33:51;;;;;;;;;;;16.50;99.90;;;;;;4921219;29;19911;-70
2022/10/01 04:36:19;;;;;;;;;;;16.50;99.90;;;;;;4919827;29;19982;-75
2022/10/01 04:38:45;;;;;;;;;;;16.50;99.90;;;;;;4919808;29;19915;-75
2022/10/01 04:41:14;;;;;;;;;;;16.50;99.90;;;;;;4919544;29;19919;-73
2022/10/01 04:43:40;;;;;;;;;;;16.30;99.90;;;;;;4919251;29;19911;-73
2022/10/01 04:46:07;;;;;;;;;;;16.20;99.90;;;;;;4919870;29;20251;-68
2022/10/01 04:48:34;;;;;;;;;;;16.10;99.90;;;;;;4921816;29;19933;-69
2022/10/01 04:51:00;;;;;;;;;;;16.20;99.90;;;;;;4921732;29;20271;-73
2022/10/01 04:53:27;;;;;;;;;;;16.20;99.90;;;;;;4920358;29;19918;-73
2022/10/01 04:55:54;;;;;;;;;;;16.30;99.90;;;;;;4929448;29;19919;-73
2022/10/01 04:58:21;;;;;;;;;;;16.40;99.90;;;;;;4938029;29;19998;-71
2022/10/01 05:00:48;;;;;;;;;;;16.30;99.90;;;;;;4938371;29;19922;-69
2022/10/01 05:03:15;;;;;;;;;;;16.20;99.90;;;;;;4938253;29;19911;-71
2022/10/01 05:05:42;;;;;;;;;;;16.20;99.90;;;;;;4938456;29;19919;-69
2022/10/01 05:08:09;;;;;;;;;;;16.20;99.90;;;;;;4942638;29;19911;-68
2022/10/01 05:10:35;;;;;;;;;;;16.30;99.90;;;;;;4929177;29;19930;-67
2022/10/01 05:13:02;;;;;;;;;;;16.40;99.90;;;;;;4918072;29;20290;-67
2022/10/01 05:15:29;;;;;;;;;;;16.40;99.90;;;;;;4919870;29;20331;-68
2022/10/01 05:17:56;;;;;;;;;;;16.20;99.90;;;;;;4919461;29;19915;-66
2022/10/01 05:20:25;;;;;;;;;;;16.10;99.90;;;;;;4919451;29;20418;-67
2022/10/01 05:22:51;;;;;;;;;;;16.10;99.90;;;;;;4919054;29;20278;-67
2022/10/01 05:25:18;;;;;;;;;;;16.20;99.90;;;;;;4928006;29;19923;-66
2022/10/01 05:27:45;;;;;;;;;;;16.20;99.90;;;;;;4936931;29;20282;-66
2022/10/01 05:30:13;;;;;;;;;;;16.00;99.90;;;;;;4937797;29;20006;-66
2022/10/01 05:32:40;;;;;;;;;;;15.90;99.90;;;;;;4937543;29;19918;-68
2022/10/01 05:35:07;;;;;;;;;;;15.80;99.90;;;;;;4937496;29;19933;-68
2022/10/01 05:37:34;;;;;;;;;;;15.70;99.90;;;;;;4938096;29;19915;-67
2022/10/01 05:40:01;;;;;;;;;;;15.70;99.90;;;;;;4937500;29;19917;-68
2022/10/01 05:42:27;;;;;;;;;;;15.80;99.90;;;;;;4937117;29;19914;-67
2022/10/01 05:44:54;;;;;;;;;;;15.90;99.90;;;;;;4937477;29;19914;-66
2022/10/01 05:47:21;;;;;;;;;;;15.90;99.90;;;;;;4937385;29;19915;-67
2022/10/01 05:49:48;;;;;;;;;;;15.90;99.90;;;;;;4933558;29;19915;-67
2022/10/01 05:52:15;;;;;;;;;;;16.00;99.90;;;;;;4917001;29;19911;-66
2022/10/01 05:54:42;;;;;;;;;;;16.00;99.90;;;;;;4918255;29;19911;-69
2022/10/01 05:57:09;;;;;;;;;;;16.00;99.90;;;;;;4918060;29;19933;-67
2022/10/01 05:59:36;;;;;;;;;;;16.00;99.90;;;;;;4917875;29;20359;-67
2022/10/01 06:02:02;;;;;;;;;;;16.10;99.90;;;;;;4918016;29;19927;-66
2022/10/01 06:04:29;;;;;;;;;;;16.20;99.90;;;;;;4923736;29;19914;-67
2022/10/01 06:06:56;;;;;;;;;;;16.20;99.90;;;;;;4936919;29;20005;-67
2022/10/01 06:09:22;;;;;;;;;;;16.20;99.90;;;;;;4936804;29;20427;-67
2022/10/01 06:11:49;;;;;;;;;;;16.10;99.90;;;;;;4937151;29;19934;-68
2022/10/01 06:14:16;;;;;;;;;;;16.00;99.90;;;;;;4937041;29;20074;-67
2022/10/01 06:16:43;;;;;;;;;;;16.00;99.90;;;;;;4936818;29;19918;-67
2022/10/01 06:19:10;;;;;;;;;;;15.90;99.90;;;;;;4934247;29;19962;-69
2022/10/01 06:21:36;;;;;;;;;;;15.90;99.90;;;;;;4936412;29;19915;-67
2022/10/01 06:24:03;;;;;;;;;;;15.90;99.90;;;;;;4936778;29;20062;-67
2022/10/01 06:26:30;;;;;;;;;;;15.90;99.90;;;;;;4936626;29;19927;-67
2022/10/01 06:28:56;;;;;;;;;;;15.90;99.90;;;;;;4936659;29;19950;-67
2022/10/01 06:31:23;;;;;;;;;;;15.90;99.90;;;;;;4936366;29;19911;-67
2022/10/01 06:33:50;;;;;;;;;;;15.90;99.90;;;;;;4935392;29;19915;-67
2022/10/01 06:36:17;;;;;;;;;;;15.90;99.90;;;;;;4935725;29;20384;-67
2022/10/01 06:38:43;;;;;;;;;;;15.70;99.90;;;;;;4936659;29;19947;-66
2022/10/01 06:41:11;;;;;;;;;;;15.40;99.90;;;;;;4936512;29;19910;-67
2022/10/01 06:43:38;;;;;;;;;;;15.10;99.90;;;;;;4936506;29;20354;-67
2022/10/01 06:46:04;;;;;;;;;;;14.80;99.90;;;;;;4936206;29;19966;-65
2022/10/01 06:48:31;;;;;;;;;;;14.70;99.90;;;;;;4936315;29;19966;-66
2022/10/01 06:50:59;;;;;;;;;;;14.60;99.90;;;;;;4936404;29;20370;-66
2022/10/01 06:53:26;;;;;;;;;;;14.60;99.90;;;;;;4936280;29;19911;-65
2022/10/01 06:55:53;;;;;;;;;;;14.60;99.90;;;;;;4936412;29;19911;-67
2022/10/01 06:58:21;;;;;;;;;;;14.60;99.90;;;;;;4936286;29;19920;-67
2022/10/01 07:00:48;;;;;;;;;;;14.60;99.90;;;;;;4935136;29;19919;-65
2022/10/01 07:03:19;;;;;;;;;;;14.70;99.90;;;;;;4935364;29;20372;-65
2022/10/01 07:05:46;;;;;;;;;;;14.70;99.90;;;;;;4936103;29;19929;-65
2022/10/01 07:08:13;;;;;;;;;;;14.80;99.90;;;;;;4935951;29;19942;-66
2022/10/01 07:10:40;;;;;;;;;;;14.90;99.90;;;;;;4935014;29;20002;-65
2022/10/01 07:13:08;;;;;;;;;;;14.90;99.90;;;;;;4935845;29;19911;-65
2022/10/01 07:15:35;;;;;;;;;;;14.80;99.90;;;;;;4936039;29;20263;-66
2022/10/01 07:18:01;;;;;;;;;;;14.80;99.90;;;;;;4936094;29;19918;-66
2022/10/01 07:20:28;;;;;;;;;;;14.80;99.90;;;;;;4935872;29;19918;-67
2022/10/01 07:22:56;;;;;;;;;;;14.80;99.90;;;;;;4936103;29;20278;-67
2022/10/01 07:25:24;;;;;;;;;;;14.70;99.90;;;;;;4933758;29;19962;-67
2022/10/01 07:27:55;;;;;;;;;;;14.60;99.90;;;;;;4916764;29;19915;-65
2022/10/01 07:30:22;;;;;;;;;;;14.60;99.90;;;;;;4917121;29;20335;-66
2022/10/01 07:32:49;;;;;;;;;;;14.60;99.90;;;;;;4916816;29;19912;-66
2022/10/01 07:35:18;;;;;;;;;;;14.30;99.90;;;;;;4916716;29;20434;-66
2022/10/01 07:37:49;;;;;;;;;;;14.00;99.90;;;;;;4915746;29;19935;-67
2022/10/01 07:40:16;;;;;;;;;;;13.80;99.90;;;;;;4916962;29;19919;-67
2022/10/01 07:42:43;;;;;;;;;;;13.70;99.90;;;;;;4932345;29;19915;-68
2022/10/01 07:45:10;;;;;;;;;;;13.60;99.90;;;;;;4935584;29;19973;-67
2022/10/01 07:47:37;;;;;;;;;;;13.40;99.90;;;;;;4938799;29;19973;-67
2022/10/01 07:50:04;;;;;;;;;;;13.30;99.90;;;;;;4939508;29;19933;-67
2022/10/01 07:52:31;;;;;;;;;;;13.10;99.90;;;;;;4939374;29;19911;-67
2022/10/01 07:54:58;;;;;;;;;;;13.10;99.90;;;;;;4937597;29;19934;-66
2022/10/01 07:57:24;;;;;;;;;;;13.10;99.90;;;;;;4937053;29;20370;-67
2022/10/01 07:59:51;;;;;;;;;;;13.20;99.90;;;;;;4938390;29;19911;-67
2022/10/01 08:02:18;;;;;;;;;;;13.10;99.90;;;;;;4937364;29;20289;-67
2022/10/01 08:07:31;;;;;;;;;;;12.90;99.90;;;;;;4937684;29;19921;-70
2022/10/01 08:09:58;;;;;;;;;;;13.00;99.90;;;;;;4932429;29;19916;-67
2022/10/01 08:12:29;;;;;;;;;;;13.00;99.90;;;;;;4917016;29;19911;-67
2022/10/01 08:14:56;;;;;;;;;;;12.90;99.90;;;;;;4918392;29;19958;-67
2022/10/01 08:17:22;;;;;;;;;;;13.00;99.90;;;;;;4919241;29;19916;-68
2022/10/01 08:19:49;;;;;;;;;;;12.80;99.90;;;;;;4919320;29;20441;-68
2022/10/01 08:22:16;;;;;;;;;;;12.90;99.90;;;;;;4919511;29;19915;-68
2022/10/01 08:24:43;;;;;;;;;;;12.70;99.90;;;;;;4923728;29;20259;-68
2022/10/01 08:27:10;;;;;;;;;;;12.60;99.90;;;;;;4938673;29;19911;-68
2022/10/01 08:29:36;;;;;;;;;;;12.60;99.90;;;;;;4938886;29;20017;-72
2022/10/01 08:32:03;;;;;;;;;;;12.50;99.90;;;;;;4938583;29;20281;-67
2022/10/01 08:34:30;;;;;;;;;;;12.50;99.90;;;;;;4938635;29;19998;-69
2022/10/01 08:36:56;;;;;;;;;;;12.50;99.90;;;;;;4938641;29;19911;-67
2022/10/01 08:39:23;;;;;;;;;;;12.60;99.90;;;;;;4934394;29;19915;-66
2022/10/01 08:41:56;;;;;;;;;;;12.60;99.90;;;;;;4919124;29;20383;-66
2022/10/01 08:44:30;;;;;;;;;;;12.70;99.90;;;;;;4919705;29;19951;-68
2022/10/01 08:46:59;;;;;;;;;;;12.70;99.90;;;;;;4919944;29;20010;-72
2022/10/01 08:49:30;;;;;;;;;;;12.60;99.90;;;;;;4921076;29;20290;-67
2022/10/01 08:52:02;;;;;;;;;;;12.70;99.90;;;;;;4919619;29;19912;-69
2022/10/01 08:54:29;;;;;;;;;;;12.70;99.90;;;;;;4919304;29;19915;-70
2022/10/01 08:57:00;;;;;;;;;;;12.80;99.90;;;;;;4919174;29;20015;-70
2022/10/01 08:59:39;;;;;;;;;;;12.90;99.90;;;;;;4918364;29;19943;-66
2022/10/01 09:02:15;;;;;;;;;;;13.00;99.90;;;;;;4920879;29;20001;-71
2022/10/01 09:04:42;;;;;;;;;;;13.20;99.90;;;;;;4939126;29;20353;-69
2022/10/01 09:07:34;;;;;;;;;;;13.20;99.90;;;;;;4940178;29;20387;-68
2022/10/01 09:10:16;;;;;;;;;;;13.30;99.90;;;;;;4939520;29;19911;-71
2022/10/01 09:12:47;;;;;;;;;;;13.50;99.90;;;;;;4940450;29;20418;-69
2022/10/01 09:15:32;;;;;;;;;;;13.60;99.90;;;;;;4939467;29;20001;-68
2022/10/01 09:18:08;;;;;;;;;;;13.70;99.90;;;;;;4940641;29;19918;-69
2022/10/01 09:20:36;;;;;;;;;;;13.80;99.90;;;;;;4943940;29;20375;-69
2022/10/01 09:23:14;;;;;;;;;;;13.80;99.90;;;;;;4941281;29;19918;-67
2022/10/01 09:25:42;;;;;;;;;;;13.90;99.90;;;;;;4939290;29;19926;-67
2022/10/01 09:28:15;;;;;;;;;;;13.90;99.90;;;;;;4939067;29;20275;-66
2022/10/01 09:30:48;;;;;;;;;;;13.90;99.90;;;;;;4925670;29;19922;-67
2022/10/01 09:33:16;;;;;;;;;;;13.90;99.90;;;;;;4918535;29;19959;-67
2022/10/01 09:35:46;;;;;;;;;;;14.00;99.90;;;;;;4918699;29;19912;-67
2022/10/01 09:38:18;;;;;;;;;;;14.00;99.90;;;;;;4918762;29;20375;-67
2022/10/01 09:40:48;;;;;;;;;;;14.00;99.90;;;;;;4927340;29;20006;-68
2022/10/01 09:43:18;;;;;;;;;;;14.00;99.90;;;;;;4936679;29;19970;-66
2022/10/01 09:45:46;;;;;;;;;;;14.10;99.90;;;;;;4936999;29;19919;-66
2022/10/01 09:48:15;;;;;;;;;;;14.00;99.90;;;;;;4937353;29;19911;-68
2022/10/01 09:50:49;;;;;;;;;;;14.10;99.90;;;;;;4936547;29;19915;-67
2022/10/01 09:53:18;;;;;;;;;;;14.10;99.90;;;;;;4935788;29;20075;-68
2022/10/01 09:55:50;;;;;;;;;;;14.10;99.90;;;;;;4937019;29;19911;-67
2022/10/01 09:58:19;;;;;;;;;;;14.10;99.90;;;;;;4937352;29;19965;-68
2022/10/01 10:00:50;;;;;;;;;;;14.10;99.90;;;;;;4936563;29;19973;-68
2022/10/01 10:03:29;;;;;;;;;;;14.10;99.90;;;;;;4936740;29;20009;-67
2022/10/01 10:05:58;;;;;;;;;;;14.10;99.90;;;;;;4936973;29;20340;-66
2022/10/01 10:08:30;;;;;;;;;;;14.10;99.90;;;;;;4936970;29;19911;-67
2022/10/01 10:10:57;;;;;;;;;;;14.10;99.90;;;;;;4937049;29;20358;-67
2022/10/01 10:13:37;;;;;;;;;;;14.10;99.90;;;;;;4936711;29;19911;-69
2022/10/01 10:16:09;;;;;;;;;;;14.10;99.90;;;;;;4936984;29;19911;-66
2022/10/01 10:18:37;;;;;;;;;;;14.00;99.90;;;;;;4936983;29;19914;-67
2022/10/01 10:21:09;;;;;;;;;;;13.90;99.90;;;;;;4936732;29;19910;-67
2022/10/01 10:23:45;;;;;;;;;;;13.90;99.90;;;;;;4936059;29;19919;-67
2022/10/01 10:26:18;;;;;;;;;;;13.90;99.90;;;;;;4936040;29;19923;-68
2022/10/01 10:28:47;;;;;;;;;;;13.80;99.90;;;;;;4936824;29;20393;-66
2022/10/01 10:31:16;;;;;;;;;;;13.60;99.90;;;;;;4936520;29;19915;-66
2022/10/01 10:33:50;;;;;;;;;;;13.50;99.90;;;;;;4935175;29;20367;-69
2022/10/01 10:36:18;;;;;;;;;;;13.20;99.90;;;;;;4935980;29;19914;-67
2022/10/01 10:38:48;;;;;;;;;;;13.10;99.90;;;;;;4936544;29;19911;-67
2022/10/01 10:41:18;;;;;;;;;;;13.10;99.90;;;;;;4936335;29;20354;-68
2022/10/01 10:43:47;;;;;;;;;;;13.00;99.90;;;;;;4936598;29;19938;-67
2022/10/01 10:46:34;;;;;;;;;;;13.00;99.90;;;;;;4936311;29;19926;-68
2022/10/01 10:49:06;;;;;;;;;;;13.00;99.90;;;;;;4935128;29;19911;-68
2022/10/01 10:51:59;;;;;;;;;;;13.00;99.90;;;;;;4936349;29;20009;-67
2022/10/01 10:54:29;;;;;;;;;;;13.00;99.90;;;;;;4934058;29;19958;-66
2022/10/01 10:57:01;;;;;;;;;;;13.00;99.90;;;;;;4936524;29;20193;-69
2022/10/01 10:59:30;;;;;;;;;;;12.90;99.90;;;;;;4936377;29;19980;-67
2022/10/01 11:01:58;;;;;;;;;;;12.80;99.90;;;;;;4935880;29;19930;-67
2022/10/01 11:04:41;;;;;;;;;;;12.70;99.90;;;;;;4936020;29;19911;-68
2022/10/01 11:07:10;;;;;;;;;;;12.80;99.90;;;;;;4935815;29;20436;-67
2022/10/01 11:09:44;;;;;;;;;;;12.70;99.90;;;;;;4936194;29;19915;-68
2022/10/01 11:12:22;;;;;;;;;;;12.80;99.90;;;;;;4936211;29;19911;-69
2022/10/01 11:15:05;;;;;;;;;;;12.80;99.90;;;;;;4936120;29;19917;-67
2022/10/01 11:17:33;;;;;;;;;;;12.60;99.90;;;;;;4936159;29;19965;-67
2022/10/01 11:20:10;;;;;;;;;;;12.50;99.90;;;;;;4934804;29;19922;-67
2022/10/01 11:22:52;;;;;;;;;;;12.60;99.90;;;;;;4941872;29;20290;-66
2022/10/01 11:25:19;;;;;;;;;;;12.60;99.90;;;;;;4942188;29;20054;-67
2022/10/01 11:28:14;;;;;;;;;;;12.80;99.90;;;;;;4942109;29;20410;-67
2022/10/01 11:30:41;;;;;;;;;;;12.80;99.90;;;;;;4928067;29;19921;-69
2022/10/01 11:33:14;;;;;;;;;;;12.70;99.90;;;;;;4941611;29;19915;-67
2022/10/01 11:35:43;;;;;;;;;;;12.80;99.90;;;;;;4942451;29;20013;-68
2022/10/01 11:38:21;;;;;;;;;;;12.80;99.90;;;;;;4942359;29;19957;-69
2022/10/01 11:40:54;;;;;;;;;;;12.90;99.90;;;;;;4942328;29;20281;-68
2022/10/01 11:43:27;;;;;;;;;;;13.00;99.90;;;;;;4942094;29;19911;-68
2022/10/01 11:45:57;;;;;;;;;;;13.00;99.90;;;;;;4940939;29;20522;-67
2022/10/01 11:48:41;;;;;;;;;;;13.00;99.90;;;;;;4942251;29;20354;-66
2022/10/01 11:51:12;;;;;;;;;;;13.00;99.90;;;;;;4942143;29;19910;-66
2022/10/01 11:53:55;;;;;;;;;;;13.00;99.90;;;;;;4942323;29;20009;-67
2022/10/01 11:59:19;;;;;;;;;;;13.00;99.90;;;;;;4941470;29;19921;-68
2022/10/01 12:01:49;;;;;;;;;;;13.10;99.90;;;;;;4940494;29;20420;-66
2022/10/01 12:04:27;;;;;;;;;;;13.10;99.90;;;;;;4942115;29;19911;-67
2022/10/01 12:06:56;;;;;;;;;;;13.20;99.90;;;;;;4941965;29;19925;-68
2022/10/01 12:09:36;;;;;;;;;;;13.30;99.90;;;;;;4941294;29;20181;-67
2022/10/01 12:12:08;;;;;;;;;;;13.30;99.90;;;;;;4942059;29;19998;-67
2022/10/01 12:14:57;;;;;;;;;;;13.40;99.90;;;;;;4941083;29;19914;-66
2022/10/01 12:17:34;;;;;;;;;;;13.40;99.90;;;;;;4933697;29;19958;-68
2022/10/01 12:20:03;;;;;;;;;;;13.40;99.90;;;;;;4942037;29;19915;-67
2022/10/01 12:22:35;;;;;;;;;;;13.30;99.90;;;;;;4941851;29;19934;-67
2022/10/01 12:25:01;;;;;;;;;;;13.20;99.90;;;;;;4941985;29;19915;-67
2022/10/01 12:27:46;;;;;;;;;;;13.10;99.90;;;;;;4941974;29;19962;-69
2022/10/01 12:30:16;;;;;;;;;;;13.00;99.90;;;;;;4940414;29;19918;-67
2022/10/01 12:32:50;;;;;;;;;;;12.90;99.90;;;;;;4939333;29;19911;-69
2022/10/01 12:35:35;;;;;;;;;;;12.80;99.90;;;;;;4938738;29;19993;-67
2022/10/01 12:38:05;;;;;;;;;;;12.80;99.90;;;;;;4938679;29;19911;-67
2022/10/01 12:40:38;;;;;;;;;;;12.80;99.90;;;;;;4938772;29;19914;-70
2022/10/01 12:43:30;;;;;;;;;;;12.80;99.90;;;;;;4938453;29;19910;-67
2022/10/01 12:46:19;;;;;;;;;;;12.70;99.90;;;;;;4938263;29;20014;-67
2022/10/01 12:49:00;;;;;;;;;;;12.60;99.90;;;;;;4938544;29;19911;-66
2022/10/01 12:51:51;;;;;;;;;;;12.60;99.90;;;;;;4938609;29;19915;-70
2022/10/01 12:54:20;;;;;;;;;;;12.60;99.90;;;;;;4938573;29;20367;-68
2022/10/01 12:56:56;;;;;;;;;;;12.60;99.90;;;;;;4937269;29;19919;-68
2022/10/01 12:59:40;;;;;;;;;;;12.60;99.90;;;;;;4938176;29;19918;-71
2022/10/01 13:02:25;;;;;;;;;;;12.60;99.90;;;;;;4938351;29;19923;-70
2022/10/01 13:05:05;;;;;;;;;;;12.50;99.90;;;;;;4938662;29;19946;-72
2022/10/01 13:07:47;;;;;;;;;;;12.40;99.90;;;;;;4940128;29;19938;-71
2022/10/01 13:10:14;;;;;;;;;;;12.30;99.90;;;;;;4937103;29;19911;-72
2022/10/01 13:12:41;;;;;;;;;;;12.20;99.90;;;;;;4938072;29;20001;-72
2022/10/01 13:15:13;;;;;;;;;;;12.10;99.90;;;;;;4937998;29;20005;-67
2022/10/01 13:17:47;;;;;;;;;;;12.10;99.90;;;;;;4938090;29;19950;-67
2022/10/01 13:20:23;;;;;;;;;;;12.00;99.90;;;;;;4938127;29;19911;-71
2022/10/01 13:22:53;;;;;;;;;;;12.00;99.90;;;;;;4938093;29;19917;-70
2022/10/01 13:25:38;;;;;;;;;;;12.00;99.90;;;;;;4937689;29;20013;-68
2022/10/01 13:28:05;;;;;;;;;;;12.00;99.90;;;;;;4937932;29;19914;-67
2022/10/01 13:30:45;;;;;;;;;;;11.90;99.90;;;;;;4937863;29;20358;-68
2022/10/01 13:33:25;;;;;;;;;;;12.00;99.90;;;;;;4937670;29;19915;-69
2022/10/01 13:35:56;;;;;;;;;;;12.00;99.90;;;;;;4937829;29;20005;-67
2022/10/01 13:38:38;;;;;;;;;;;12.00;99.90;;;;;;4937825;29;20281;-70
2022/10/01 13:41:06;;;;;;;;;;;11.90;99.90;;;;;;4937760;29;19911;-67
2022/10/01 13:43:34;;;;;;;;;;;11.90;99.90;;;;;;4937610;29;19911;-68
2022/10/01 13:46:08;;;;;;;;;;;11.90;99.90;;;;;;4936303;29;19923;-69
2022/10/01 13:48:36;;;;;;;;;;;11.90;99.90;;;;;;4937170;29;19911;-70
2022/10/01 13:51:09;;;;;;;;;;;11.80;99.90;;;;;;4937216;29;19910;-69
2022/10/01 13:53:36;;;;;;;;;;;11.80;99.90;;;;;;4936927;29;19911;-68
2022/10/01 13:56:03;;;;;;;;;;;11.80;99.90;;;;;;4935759;29;20355;-70
2022/10/01 13:58:31;;;;;;;;;;;11.90;99.90;;;;;;4936870;29;20359;-69
2022/10/01 14:00:59;;;;;;;;;;;11.90;99.90;;;;;;4937041;29;19929;-68
2022/10/01 14:03:42;;;;;;;;;;;12.00;99.90;;;;;;4937145;29;19919;-69
2022/10/01 14:06:31;;;;;;;;;;;12.20;99.90;;;;;;4937223;29;19926;-69
2022/10/01 14:09:06;;;;;;;;;;;12.30;99.90;;;;;;4937265;29;20001;-67
2022/10/01 14:17:13;;;;;;;;;;;12.50;99.90;;;;;;4936974;29;20372;-67
2022/10/01 14:19:48;;;;;;;;;;;12.50;99.90;;;;;;4936457;29;19911;-67
2022/10/01 14:22:15;;;;;;;;;;;12.60;99.90;;;;;;4936796;29;20005;-68
2022/10/01 14:25:00;;;;;;;;;;;12.50;99.90;;;;;;4936828;29;19918;-67
2022/10/01 14:27:38;;;;;;;;;;;12.60;99.90;;;;;;4936764;29;19919;-67
2022/10/01 14:30:06;;;;;;;;;;;12.60;99.90;;;;;;4936678;29;19910;-67
2022/10/01 14:32:36;;;;;;;;;;;12.70;99.90;;;;;;4936726;29;19911;-67
2022/10/01 14:35:19;;;;;;;;;;;12.60;99.90;;;;;;4930556;29;19940;-67
2022/10/01 14:37:46;;;;;;;;;;;12.60;99.90;;;;;;4917718;29;19926;-68
2022/10/01 14:40:16;;;;;;;;;;;12.60;99.90;;;;;;4917580;29;19915;-70
2022/10/01 14:42:43;;;;;;;;;;;12.60;99.90;;;;;;4917689;29;19967;-69
2022/10/01 14:45:14;;;;;;;;;;;12.70;99.90;;;;;;4919789;29;19919;-68